Terminal Aerodrome Forecast
Issued by NWS Omaha/Valley, NE

Home | Current Version | Previous Version | Text Only | Print | Product List | Glossary On
Versions: 1 2 3 4 5 6 7 8 9 10 11 12 13 14 15 16 17 18 19 20 21 22 23 24 25 26 27 28 29 30 31 32 33 34 35 36 37 38 39 40 41 42 43 44 45 46 47 48
000
FTUS43 KOAX 270639 AAA
TAFOFK
TAF AMD
KOFK 270639Z 2707/2806 10005KT P6SM OVC025
     FM270900 12005KT P6SM OVC020
      TEMPO 2710/2713 4SM -TSRA BR OVC015CB
     FM271300 11005KT 2SM TSRA BR OVC007CB
     FM271600 13007KT P6SM OVC015
     FM280000 14005KT 5SM BR OVC025=

USA.gov is the U.S. government's official web portal to all federal, state and local government web resources and services.